sensor_id;sensor_type;location;lat;lon;timestamp;P1;durP1;ratioP1;P2;durP2;ratioP2
28523;SDS011;15734;50.904;6.922;2022-07-23T00:02:15;43.22;;;24.77;;
28523;SDS011;15734;50.904;6.922;2022-07-23T00:04:40;35.25;;;22.00;;
28523;SDS011;15734;50.904;6.922;2022-07-23T00:07:06;36.53;;;21.88;;
28523;SDS011;15734;50.904;6.922;2022-07-23T00:09:31;36.90;;;22.45;;
28523;SDS011;15734;50.904;6.922;2022-07-23T00:11:57;33.42;;;20.52;;
28523;SDS011;15734;50.904;6.922;2022-07-23T00:14:22;35.92;;;21.30;;
28523;SDS011;15734;50.904;6.922;2022-07-23T00:16:48;33.40;;;20.58;;
28523;SDS011;15734;50.904;6.922;2022-07-23T00:19:13;35.58;;;21.05;;
28523;SDS011;15734;50.904;6.922;2022-07-23T00:21:39;32.75;;;21.15;;
28523;SDS011;15734;50.904;6.922;2022-07-23T00:24:05;40.03;;;22.83;;
28523;SDS011;15734;50.904;6.922;2022-07-23T00:26:30;43.63;;;25.13;;
28523;SDS011;15734;50.904;6.922;2022-07-23T00:28:56;40.60;;;25.10;;
28523;SDS011;15734;50.904;6.922;2022-07-23T00:31:21;41.20;;;24.58;;
28523;SDS011;15734;50.904;6.922;2022-07-23T00:33:47;45.92;;;26.45;;
28523;SDS011;15734;50.904;6.922;2022-07-23T00:36:12;44.50;;;25.77;;
28523;SDS011;15734;50.904;6.922;2022-07-23T00:38:38;45.60;;;24.38;;
28523;SDS011;15734;50.904;6.922;2022-07-23T00:41:04;43.80;;;25.02;;
28523;SDS011;15734;50.904;6.922;2022-07-23T00:43:29;34.63;;;21.52;;
28523;SDS011;15734;50.904;6.922;2022-07-23T00:45:55;36.53;;;21.70;;
28523;SDS011;15734;50.904;6.922;2022-07-23T00:48:20;34.40;;;20.20;;
28523;SDS011;15734;50.904;6.922;2022-07-23T00:50:46;30.27;;;19.30;;
28523;SDS011;15734;50.904;6.922;2022-07-23T00:53:12;32.53;;;19.35;;
28523;SDS011;15734;50.904;6.922;2022-07-23T00:55:38;38.90;;;19.23;;
28523;SDS011;15734;50.904;6.922;2022-07-23T00:58:03;34.78;;;18.50;;
28523;SDS011;15734;50.904;6.922;2022-07-23T01:00:29;33.78;;;17.63;;
28523;SDS011;15734;50.904;6.922;2022-07-23T01:02:55;25.02;;;15.98;;
28523;SDS011;15734;50.904;6.922;2022-07-23T01:05:21;24.23;;;14.32;;
28523;SDS011;15734;50.904;6.922;2022-07-23T01:07:50;25.42;;;13.95;;
28523;SDS011;15734;50.904;6.922;2022-07-23T01:10:16;27.80;;;15.32;;
28523;SDS011;15734;50.904;6.922;2022-07-23T01:12:58;26.02;;;15.38;;
28523;SDS011;15734;50.904;6.922;2022-07-23T01:15:23;23.65;;;14.25;;
28523;SDS011;15734;50.904;6.922;2022-07-23T01:17:49;21.55;;;13.75;;
28523;SDS011;15734;50.904;6.922;2022-07-23T01:20:15;26.60;;;15.35;;
28523;SDS011;15734;50.904;6.922;2022-07-23T01:22:40;31.35;;;16.58;;
28523;SDS011;15734;50.904;6.922;2022-07-23T01:25:06;29.50;;;17.38;;
28523;SDS011;15734;50.904;6.922;2022-07-23T01:27:32;25.35;;;17.35;;
28523;SDS011;15734;50.904;6.922;2022-07-23T01:29:59;31.15;;;17.70;;
28523;SDS011;15734;50.904;6.922;2022-07-23T01:32:26;27.88;;;17.30;;
28523;SDS011;15734;50.904;6.922;2022-07-23T01:34:51;34.15;;;18.73;;
28523;SDS011;15734;50.904;6.922;2022-07-23T01:37:17;39.97;;;20.00;;
28523;SDS011;15734;50.904;6.922;2022-07-23T01:39:42;36.85;;;21.52;;
28523;SDS011;15734;50.904;6.922;2022-07-23T01:42:08;32.00;;;20.08;;
28523;SDS011;15734;50.904;6.922;2022-07-23T01:44:33;39.90;;;23.30;;
28523;SDS011;15734;50.904;6.922;2022-07-23T01:46:59;41.15;;;23.30;;
28523;SDS011;15734;50.904;6.922;2022-07-23T01:49:25;47.40;;;25.95;;
28523;SDS011;15734;50.904;6.922;2022-07-23T01:51:50;45.55;;;25.35;;
28523;SDS011;15734;50.904;6.922;2022-07-23T01:56:57;56.47;;;26.95;;
28523;SDS011;15734;50.904;6.922;2022-07-23T01:59:24;47.65;;;25.90;;
28523;SDS011;15734;50.904;6.922;2022-07-23T02:01:50;49.95;;;28.52;;
28523;SDS011;15734;50.904;6.922;2022-07-23T02:04:22;57.33;;;28.30;;
28523;SDS011;15734;50.904;6.922;2022-07-23T02:06:49;58.33;;;31.30;;
28523;SDS011;15734;50.904;6.922;2022-07-23T02:09:15;57.03;;;30.90;;
28523;SDS011;15734;50.904;6.922;2022-07-23T02:11:41;62.55;;;32.30;;
28523;SDS011;15734;50.904;6.922;2022-07-23T02:14:07;57.80;;;32.67;;
28523;SDS011;15734;50.904;6.922;2022-07-23T02:16:32;68.75;;;32.08;;
28523;SDS011;15734;50.904;6.922;2022-07-23T02:18:58;66.57;;;32.50;;
28523;SDS011;15734;50.904;6.922;2022-07-23T02:21:24;77.97;;;34.92;;
28523;SDS011;15734;50.904;6.922;2022-07-23T02:23:49;74.10;;;34.63;;
28523;SDS011;15734;50.904;6.922;2022-07-23T02:26:15;67.20;;;34.72;;
28523;SDS011;15734;50.904;6.922;2022-07-23T02:28:40;76.47;;;35.90;;
28523;SDS011;15734;50.904;6.922;2022-07-23T02:31:06;74.20;;;36.80;;
28523;SDS011;15734;50.904;6.922;2022-07-23T02:33:32;72.05;;;36.42;;
28523;SDS011;15734;50.904;6.922;2022-07-23T02:35:58;70.57;;;37.33;;
28523;SDS011;15734;50.904;6.922;2022-07-23T02:38:24;66.43;;;33.22;;
28523;SDS011;15734;50.904;6.922;2022-07-23T02:40:50;69.90;;;34.13;;
28523;SDS011;15734;50.904;6.922;2022-07-23T02:43:15;60.47;;;33.00;;
28523;SDS011;15734;50.904;6.922;2022-07-23T02:45:41;68.97;;;33.83;;
28523;SDS011;15734;50.904;6.922;2022-07-23T02:48:06;62.65;;;33.38;;
28523;SDS011;15734;50.904;6.922;2022-07-23T02:50:32;69.80;;;34.03;;
28523;SDS011;15734;50.904;6.922;2022-07-23T02:52:57;71.38;;;35.47;;
28523;SDS011;15734;50.904;6.922;2022-07-23T02:55:23;67.10;;;33.20;;
28523;SDS011;15734;50.904;6.922;2022-07-23T02:57:49;64.55;;;32.70;;
28523;SDS011;15734;50.904;6.922;2022-07-23T03:00:14;62.60;;;34.22;;
28523;SDS011;15734;50.904;6.922;2022-07-23T03:02:40;60.50;;;31.23;;
28523;SDS011;15734;50.904;6.922;2022-07-23T03:05:06;70.28;;;35.17;;
28523;SDS011;15734;50.904;6.922;2022-07-23T03:07:31;57.78;;;33.38;;
28523;SDS011;15734;50.904;6.922;2022-07-23T03:09:57;61.83;;;34.25;;
28523;SDS011;15734;50.904;6.922;2022-07-23T03:12:22;55.97;;;32.75;;
28523;SDS011;15734;50.904;6.922;2022-07-23T03:14:48;70.15;;;35.08;;
28523;SDS011;15734;50.904;6.922;2022-07-23T03:17:14;67.28;;;37.30;;
28523;SDS011;15734;50.904;6.922;2022-07-23T03:19:39;68.00;;;34.58;;
28523;SDS011;15734;50.904;6.922;2022-07-23T03:22:05;65.38;;;34.85;;
28523;SDS011;15734;50.904;6.922;2022-07-23T03:24:30;70.00;;;36.28;;
28523;SDS011;15734;50.904;6.922;2022-07-23T03:27:15;71.40;;;36.92;;
28523;SDS011;15734;50.904;6.922;2022-07-23T03:29:40;72.47;;;35.72;;
28523;SDS011;15734;50.904;6.922;2022-07-23T03:32:06;74.20;;;37.40;;
28523;SDS011;15734;50.904;6.922;2022-07-23T03:34:31;75.65;;;36.03;;
28523;SDS011;15734;50.904;6.922;2022-07-23T03:36:57;65.72;;;36.90;;
28523;SDS011;15734;50.904;6.922;2022-07-23T03:39:23;74.40;;;37.33;;
28523;SDS011;15734;50.904;6.922;2022-07-23T03:41:48;69.13;;;36.47;;
28523;SDS011;15734;50.904;6.922;2022-07-23T03:44:14;73.43;;;36.67;;
28523;SDS011;15734;50.904;6.922;2022-07-23T03:46:39;64.15;;;36.00;;
28523;SDS011;15734;50.904;6.922;2022-07-23T03:49:05;73.03;;;37.78;;
28523;SDS011;15734;50.904;6.922;2022-07-23T03:51:30;82.65;;;39.15;;
28523;SDS011;15734;50.904;6.922;2022-07-23T03:53:56;74.93;;;36.33;;
28523;SDS011;15734;50.904;6.922;2022-07-23T03:56:21;65.68;;;33.70;;
28523;SDS011;15734;50.904;6.922;2022-07-23T03:58:47;63.58;;;34.63;;
28523;SDS011;15734;50.904;6.922;2022-07-23T04:01:12;60.63;;;34.75;;
28523;SDS011;15734;50.904;6.922;2022-07-23T04:03:38;65.28;;;35.03;;
28523;SDS011;15734;50.904;6.922;2022-07-23T04:06:04;72.57;;;34.78;;
28523;SDS011;15734;50.904;6.922;2022-07-23T04:08:31;73.40;;;35.80;;
28523;SDS011;15734;50.904;6.922;2022-07-23T04:10:56;69.47;;;34.05;;
28523;SDS011;15734;50.904;6.922;2022-07-23T04:13:22;64.85;;;33.53;;
28523;SDS011;15734;50.904;6.922;2022-07-23T04:15:48;66.03;;;34.78;;
28523;SDS011;15734;50.904;6.922;2022-07-23T04:18:15;55.47;;;32.50;;
28523;SDS011;15734;50.904;6.922;2022-07-23T04:20:42;63.83;;;35.40;;
28523;SDS011;15734;50.904;6.922;2022-07-23T04:23:08;67.70;;;34.72;;
28523;SDS011;15734;50.904;6.922;2022-07-23T04:25:34;68.97;;;35.95;;
28523;SDS011;15734;50.904;6.922;2022-07-23T04:28:00;64.22;;;34.05;;
28523;SDS011;15734;50.904;6.922;2022-07-23T04:30:25;74.70;;;38.42;;
28523;SDS011;15734;50.904;6.922;2022-07-23T04:32:51;73.80;;;36.53;;
28523;SDS011;15734;50.904;6.922;2022-07-23T04:35:16;80.50;;;40.38;;
28523;SDS011;15734;50.904;6.922;2022-07-23T04:37:42;83.78;;;41.22;;
28523;SDS011;15734;50.904;6.922;2022-07-23T04:40:08;90.15;;;42.33;;
28523;SDS011;15734;50.904;6.922;2022-07-23T04:42:34;85.75;;;39.55;;
28523;SDS011;15734;50.904;6.922;2022-07-23T04:45:00;75.28;;;38.97;;
28523;SDS011;15734;50.904;6.922;2022-07-23T04:47:25;91.35;;;42.85;;
28523;SDS011;15734;50.904;6.922;2022-07-23T04:49:51;93.03;;;42.92;;
28523;SDS011;15734;50.904;6.922;2022-07-23T04:52:16;102.75;;;42.72;;
28523;SDS011;15734;50.904;6.922;2022-07-23T04:54:42;93.80;;;44.88;;
28523;SDS011;15734;50.904;6.922;2022-07-23T04:57:07;91.35;;;41.83;;
28523;SDS011;15734;50.904;6.922;2022-07-23T04:59:33;85.95;;;43.80;;
28523;SDS011;15734;50.904;6.922;2022-07-23T05:01:58;90.18;;;44.67;;
28523;SDS011;15734;50.904;6.922;2022-07-23T05:04:24;92.95;;;46.47;;
28523;SDS011;15734;50.904;6.922;2022-07-23T05:06:49;107.68;;;46.78;;
28523;SDS011;15734;50.904;6.922;2022-07-23T05:09:15;106.53;;;49.67;;
28523;SDS011;15734;50.904;6.922;2022-07-23T05:11:40;100.15;;;47.60;;
28523;SDS011;15734;50.904;6.922;2022-07-23T05:14:06;102.43;;;48.10;;
28523;SDS011;15734;50.904;6.922;2022-07-23T05:16:31;107.70;;;47.22;;
28523;SDS011;15734;50.904;6.922;2022-07-23T05:18:57;89.35;;;42.65;;
28523;SDS011;15734;50.904;6.922;2022-07-23T05:21:22;97.22;;;44.83;;
28523;SDS011;15734;50.904;6.922;2022-07-23T05:23:48;74.47;;;38.60;;
28523;SDS011;15734;50.904;6.922;2022-07-23T05:26:13;81.47;;;42.15;;
28523;SDS011;15734;50.904;6.922;2022-07-23T05:28:39;97.93;;;42.10;;
28523;SDS011;15734;50.904;6.922;2022-07-23T05:31:04;83.30;;;42.15;;
28523;SDS011;15734;50.904;6.922;2022-07-23T05:33:30;74.78;;;37.03;;
28523;SDS011;15734;50.904;6.922;2022-07-23T05:36:00;93.90;;;42.47;;
28523;SDS011;15734;50.904;6.922;2022-07-23T05:38:27;88.07;;;41.25;;
28523;SDS011;15734;50.904;6.922;2022-07-23T05:40:52;93.30;;;41.88;;
28523;SDS011;15734;50.904;6.922;2022-07-23T05:43:18;90.47;;;42.72;;
28523;SDS011;15734;50.904;6.922;2022-07-23T05:45:43;82.03;;;42.08;;
28523;SDS011;15734;50.904;6.922;2022-07-23T05:48:09;92.22;;;43.03;;
28523;SDS011;15734;50.904;6.922;2022-07-23T05:50:34;82.22;;;41.13;;
28523;SDS011;15734;50.904;6.922;2022-07-23T05:53:00;81.90;;;41.33;;
28523;SDS011;15734;50.904;6.922;2022-07-23T05:55:26;78.50;;;39.38;;
28523;SDS011;15734;50.904;6.922;2022-07-23T05:57:54;82.00;;;41.78;;
28523;SDS011;15734;50.904;6.922;2022-07-23T06:00:23;87.20;;;43.90;;
28523;SDS011;15734;50.904;6.922;2022-07-23T06:02:49;93.10;;;43.55;;
28523;SDS011;15734;50.904;6.922;2022-07-23T06:05:15;91.18;;;42.58;;
28523;SDS011;15734;50.904;6.922;2022-07-23T06:07:40;102.63;;;44.70;;
28523;SDS011;15734;50.904;6.922;2022-07-23T06:10:06;83.10;;;40.75;;
28523;SDS011;15734;50.904;6.922;2022-07-23T06:12:32;82.85;;;41.58;;
28523;SDS011;15734;50.904;6.922;2022-07-23T06:14:58;87.15;;;41.22;;
28523;SDS011;15734;50.904;6.922;2022-07-23T06:17:23;81.57;;;40.10;;
28523;SDS011;15734;50.904;6.922;2022-07-23T06:19:49;80.07;;;38.90;;
28523;SDS011;15734;50.904;6.922;2022-07-23T06:22:15;80.72;;;40.13;;
28523;SDS011;15734;50.904;6.922;2022-07-23T06:24:40;74.97;;;37.58;;
28523;SDS011;15734;50.904;6.922;2022-07-23T06:27:06;74.65;;;35.55;;
28523;SDS011;15734;50.904;6.922;2022-07-23T06:29:32;74.35;;;35.50;;
28523;SDS011;15734;50.904;6.922;2022-07-23T06:31:57;70.35;;;35.20;;
28523;SDS011;15734;50.904;6.922;2022-07-23T06:34:23;67.93;;;33.75;;
28523;SDS011;15734;50.904;6.922;2022-07-23T06:36:48;57.00;;;31.60;;
28523;SDS011;15734;50.904;6.922;2022-07-23T06:39:14;58.75;;;29.48;;
28523;SDS011;15734;50.904;6.922;2022-07-23T06:41:39;57.95;;;30.13;;
28523;SDS011;15734;50.904;6.922;2022-07-23T06:44:05;62.25;;;31.25;;
28523;SDS011;15734;50.904;6.922;2022-07-23T06:46:30;61.05;;;31.80;;
28523;SDS011;15734;50.904;6.922;2022-07-23T06:48:56;54.38;;;29.17;;
28523;SDS011;15734;50.904;6.922;2022-07-23T06:51:22;57.72;;;30.52;;
28523;SDS011;15734;50.904;6.922;2022-07-23T06:53:47;53.53;;;27.73;;
28523;SDS011;15734;50.904;6.922;2022-07-23T06:56:13;53.80;;;27.50;;
28523;SDS011;15734;50.904;6.922;2022-07-23T06:58:38;55.58;;;29.50;;
28523;SDS011;15734;50.904;6.922;2022-07-23T07:01:04;51.47;;;28.92;;
28523;SDS011;15734;50.904;6.922;2022-07-23T07:03:29;51.50;;;28.52;;
28523;SDS011;15734;50.904;6.922;2022-07-23T07:05:55;51.85;;;29.00;;
28523;SDS011;15734;50.904;6.922;2022-07-23T07:08:22;50.00;;;27.40;;
28523;SDS011;15734;50.904;6.922;2022-07-23T07:10:48;54.50;;;29.63;;
28523;SDS011;15734;50.904;6.922;2022-07-23T07:13:13;53.60;;;27.88;;
28523;SDS011;15734;50.904;6.922;2022-07-23T07:15:39;48.33;;;26.30;;
28523;SDS011;15734;50.904;6.922;2022-07-23T07:18:05;44.78;;;25.52;;
28523;SDS011;15734;50.904;6.922;2022-07-23T07:20:30;46.60;;;26.63;;
28523;SDS011;15734;50.904;6.922;2022-07-23T07:22:56;42.65;;;23.98;;
28523;SDS011;15734;50.904;6.922;2022-07-23T07:25:21;44.70;;;25.40;;
28523;SDS011;15734;50.904;6.922;2022-07-23T07:27:47;37.20;;;21.52;;
28523;SDS011;15734;50.904;6.922;2022-07-23T07:30:13;31.05;;;20.25;;
28523;SDS011;15734;50.904;6.922;2022-07-23T07:32:39;36.50;;;19.55;;
28523;SDS011;15734;50.904;6.922;2022-07-23T07:35:05;36.63;;;18.85;;
28523;SDS011;15734;50.904;6.922;2022-07-23T07:37:31;26.80;;;16.60;;
28523;SDS011;15734;50.904;6.922;2022-07-23T07:39:56;27.05;;;15.52;;
28523;SDS011;15734;50.904;6.922;2022-07-23T07:42:22;28.48;;;14.63;;
28523;SDS011;15734;50.904;6.922;2022-07-23T07:44:48;27.30;;;14.07;;
28523;SDS011;15734;50.904;6.922;2022-07-23T07:47:13;24.90;;;15.63;;
28523;SDS011;15734;50.904;6.922;2022-07-23T07:49:40;28.52;;;14.82;;
28523;SDS011;15734;50.904;6.922;2022-07-23T07:52:06;32.40;;;16.38;;
28523;SDS011;15734;50.904;6.922;2022-07-23T07:54:32;24.52;;;15.02;;
28523;SDS011;15734;50.904;6.922;2022-07-23T07:56:58;29.48;;;18.48;;
28523;SDS011;15734;50.904;6.922;2022-07-23T07:59:23;27.38;;;16.55;;
28523;SDS011;15734;50.904;6.922;2022-07-23T08:01:49;31.52;;;17.38;;
28523;SDS011;15734;50.904;6.922;2022-07-23T08:04:14;27.75;;;16.27;;
28523;SDS011;15734;50.904;6.922;2022-07-23T08:06:40;24.90;;;14.77;;
28523;SDS011;15734;50.904;6.922;2022-07-23T08:09:05;24.83;;;15.70;;
28523;SDS011;15734;50.904;6.922;2022-07-23T08:11:31;37.80;;;20.90;;
28523;SDS011;15734;50.904;6.922;2022-07-23T08:13:56;37.75;;;18.17;;
28523;SDS011;15734;50.904;6.922;2022-07-23T08:16:22;36.30;;;21.30;;
28523;SDS011;15734;50.904;6.922;2022-07-23T08:18:47;40.88;;;21.13;;
28523;SDS011;15734;50.904;6.922;2022-07-23T08:21:13;37.33;;;20.55;;
28523;SDS011;15734;50.904;6.922;2022-07-23T08:23:39;32.30;;;20.33;;
28523;SDS011;15734;50.904;6.922;2022-07-23T08:26:04;33.22;;;18.13;;
28523;SDS011;15734;50.904;6.922;2022-07-23T08:28:30;29.80;;;17.20;;
28523;SDS011;15734;50.904;6.922;2022-07-23T08:30:58;42.65;;;19.40;;
28523;SDS011;15734;50.904;6.922;2022-07-23T08:33:25;40.03;;;19.05;;
28523;SDS011;15734;50.904;6.922;2022-07-23T08:35:50;34.67;;;20.05;;
28523;SDS011;15734;50.904;6.922;2022-07-23T08:38:18;33.03;;;19.45;;
28523;SDS011;15734;50.904;6.922;2022-07-23T08:40:46;28.38;;;18.13;;
28523;SDS011;15734;50.904;6.922;2022-07-23T08:43:14;31.95;;;20.08;;
28523;SDS011;15734;50.904;6.922;2022-07-23T08:45:42;24.45;;;16.60;;
28523;SDS011;15734;50.904;6.922;2022-07-23T08:48:13;27.00;;;16.63;;
28523;SDS011;15734;50.904;6.922;2022-07-23T08:50:42;25.98;;;16.27;;
28523;SDS011;15734;50.904;6.922;2022-07-23T08:53:09;28.55;;;17.75;;
28523;SDS011;15734;50.904;6.922;2022-07-23T08:55:35;28.48;;;18.02;;
28523;SDS011;15734;50.904;6.922;2022-07-23T08:58:01;25.17;;;16.60;;
28523;SDS011;15734;50.904;6.922;2022-07-23T09:00:27;22.73;;;14.75;;
28523;SDS011;15734;50.904;6.922;2022-07-23T09:02:53;23.10;;;13.93;;
28523;SDS011;15734;50.904;6.922;2022-07-23T09:05:19;28.17;;;17.48;;
28523;SDS011;15734;50.904;6.922;2022-07-23T09:10:44;24.75;;;14.52;;
28523;SDS011;15734;50.904;6.922;2022-07-23T09:16:29;25.70;;;16.10;;
28523;SDS011;15734;50.904;6.922;2022-07-23T09:19:03;28.25;;;19.05;;
28523;SDS011;15734;50.904;6.922;2022-07-23T09:21:37;27.90;;;18.77;;
28523;SDS011;15734;50.904;6.922;2022-07-23T09:24:07;31.00;;;17.33;;
28523;SDS011;15734;50.904;6.922;2022-07-23T09:34:11;26.95;;;17.30;;
28523;SDS011;15734;50.904;6.922;2022-07-23T09:36:47;25.45;;;15.90;;
28523;SDS011;15734;50.904;6.922;2022-07-23T09:39:14;24.80;;;18.92;;
28523;SDS011;15734;50.904;6.922;2022-07-23T09:41:43;24.58;;;17.33;;
28523;SDS011;15734;50.904;6.922;2022-07-23T09:44:17;27.60;;;16.77;;
28523;SDS011;15734;50.904;6.922;2022-07-23T09:46:48;29.40;;;21.40;;
28523;SDS011;15734;50.904;6.922;2022-07-23T09:49:22;27.85;;;17.20;;
28523;SDS011;15734;50.904;6.922;2022-07-23T09:51:49;26.92;;;20.15;;
28523;SDS011;15734;50.904;6.922;2022-07-23T09:56:57;27.10;;;17.88;;
28523;SDS011;15734;50.904;6.922;2022-07-23T09:59:25;22.88;;;16.00;;
28523;SDS011;15734;50.904;6.922;2022-07-23T10:01:56;25.30;;;16.50;;
28523;SDS011;15734;50.904;6.922;2022-07-23T10:04:24;23.10;;;15.27;;
28523;SDS011;15734;50.904;6.922;2022-07-23T10:06:52;23.90;;;15.15;;
28523;SDS011;15734;50.904;6.922;2022-07-23T10:09:22;21.25;;;16.00;;
28523;SDS011;15734;50.904;6.922;2022-07-23T10:11:56;20.52;;;15.40;;
28523;SDS011;15734;50.904;6.922;2022-07-23T10:14:31;20.40;;;13.60;;
28523;SDS011;15734;50.904;6.922;2022-07-23T10:16:59;19.05;;;12.27;;
28523;SDS011;15734;50.904;6.922;2022-07-23T10:19:26;29.88;;;14.25;;
28523;SDS011;15734;50.904;6.922;2022-07-23T10:21:54;20.85;;;12.15;;
28523;SDS011;15734;50.904;6.922;2022-07-23T10:36:04;17.55;;;10.50;;
28523;SDS011;15734;50.904;6.922;2022-07-23T10:38:47;14.18;;;10.30;;
28523;SDS011;15734;50.904;6.922;2022-07-23T10:41:30;21.80;;;13.73;;
28523;SDS011;15734;50.904;6.922;2022-07-23T10:44:08;17.10;;;11.80;;
28523;SDS011;15734;50.904;6.922;2022-07-23T10:49:42;11.18;;;8.10;;
28523;SDS011;15734;50.904;6.922;2022-07-23T10:54:43;19.80;;;10.68;;
28523;SDS011;15734;50.904;6.922;2022-07-23T10:57:11;12.98;;;7.32;;
28523;SDS011;15734;50.904;6.922;2022-07-23T11:02:26;13.85;;;8.50;;
28523;SDS011;15734;50.904;6.922;2022-07-23T11:04:58;11.23;;;7.80;;
28523;SDS011;15734;50.904;6.922;2022-07-23T11:07:26;16.25;;;8.65;;
28523;SDS011;15734;50.904;6.922;2022-07-23T11:09:53;13.82;;;8.10;;
28523;SDS011;15734;50.904;6.922;2022-07-23T11:15:00;15.10;;;8.30;;
28523;SDS011;15734;50.904;6.922;2022-07-23T11:17:26;12.50;;;8.10;;
28523;SDS011;15734;50.904;6.922;2022-07-23T11:25:07;13.88;;;8.43;;
28523;SDS011;15734;50.904;6.922;2022-07-23T11:27:40;15.98;;;9.43;;
28523;SDS011;15734;50.904;6.922;2022-07-23T11:30:07;17.50;;;9.18;;
28523;SDS011;15734;50.904;6.922;2022-07-23T11:32:36;14.55;;;8.77;;
28523;SDS011;15734;50.904;6.922;2022-07-23T11:35:17;12.60;;;8.45;;
28523;SDS011;15734;50.904;6.922;2022-07-23T11:37:47;10.43;;;7.07;;
28523;SDS011;15734;50.904;6.922;2022-07-23T11:40:14;13.95;;;8.25;;
28523;SDS011;15734;50.904;6.922;2022-07-23T11:42:55;12.13;;;8.05;;
28523;SDS011;15734;50.904;6.922;2022-07-23T11:45:23;10.98;;;6.50;;
28523;SDS011;15734;50.904;6.922;2022-07-23T11:47:51;11.20;;;7.05;;
28523;SDS011;15734;50.904;6.922;2022-07-23T11:50:16;9.60;;;6.55;;
28523;SDS011;15734;50.904;6.922;2022-07-23T11:52:42;17.08;;;7.07;;
28523;SDS011;15734;50.904;6.922;2022-07-23T11:55:09;9.95;;;5.93;;
28523;SDS011;15734;50.904;6.922;2022-07-23T11:57:37;9.77;;;4.85;;
28523;SDS011;15734;50.904;6.922;2022-07-23T12:00:07;7.28;;;4.88;;
28523;SDS011;15734;50.904;6.922;2022-07-23T12:02:34;5.32;;;4.63;;
28523;SDS011;15734;50.904;6.922;2022-07-23T12:05:00;7.35;;;5.47;;
28523;SDS011;15734;50.904;6.922;2022-07-23T12:07:35;9.85;;;5.60;;
28523;SDS011;15734;50.904;6.922;2022-07-23T12:10:13;5.80;;;4.65;;
28523;SDS011;15734;50.904;6.922;2022-07-23T12:15:14;7.55;;;4.68;;
28523;SDS011;15734;50.904;6.922;2022-07-23T12:17:42;8.13;;;4.05;;
28523;SDS011;15734;50.904;6.922;2022-07-23T12:20:10;6.45;;;4.65;;
28523;SDS011;15734;50.904;6.922;2022-07-23T12:22:39;8.25;;;5.47;;
28523;SDS011;15734;50.904;6.922;2022-07-23T12:25:11;9.43;;;5.93;;
28523;SDS011;15734;50.904;6.922;2022-07-23T12:27:38;6.72;;;5.63;;
28523;SDS011;15734;50.904;6.922;2022-07-23T12:30:20;8.27;;;5.25;;
28523;SDS011;15734;50.904;6.922;2022-07-23T12:32:49;5.53;;;4.78;;
28523;SDS011;15734;50.904;6.922;2022-07-23T12:35:16;7.50;;;4.85;;
28523;SDS011;15734;50.904;6.922;2022-07-23T12:37:44;7.82;;;4.60;;
28523;SDS011;15734;50.904;6.922;2022-07-23T12:42:49;7.53;;;5.28;;
28523;SDS011;15734;50.904;6.922;2022-07-23T12:45:17;8.85;;;4.53;;
28523;SDS011;15734;50.904;6.922;2022-07-23T12:48:03;9.02;;;4.10;;
28523;SDS011;15734;50.904;6.922;2022-07-23T12:53:08;4.43;;;4.03;;
28523;SDS011;15734;50.904;6.922;2022-07-23T12:55:39;8.65;;;4.07;;
28523;SDS011;15734;50.904;6.922;2022-07-23T12:58:40;10.45;;;5.93;;
28523;SDS011;15734;50.904;6.922;2022-07-23T13:01:08;7.78;;;5.53;;
28523;SDS011;15734;50.904;6.922;2022-07-23T13:03:39;9.52;;;5.20;;
28523;SDS011;15734;50.904;6.922;2022-07-23T13:06:07;7.60;;;4.35;;
28523;SDS011;15734;50.904;6.922;2022-07-23T13:08:34;5.00;;;3.78;;
28523;SDS011;15734;50.904;6.922;2022-07-23T13:11:01;8.00;;;5.05;;
28523;SDS011;15734;50.904;6.922;2022-07-23T13:13:29;6.90;;;4.32;;
28523;SDS011;15734;50.904;6.922;2022-07-23T13:15:57;6.60;;;3.88;;
28523;SDS011;15734;50.904;6.922;2022-07-23T13:18:23;4.22;;;3.50;;
28523;SDS011;15734;50.904;6.922;2022-07-23T13:20:50;14.90;;;3.80;;
28523;SDS011;15734;50.904;6.922;2022-07-23T13:23:16;6.93;;;4.45;;
28523;SDS011;15734;50.904;6.922;2022-07-23T13:25:42;7.22;;;4.88;;
28523;SDS011;15734;50.904;6.922;2022-07-23T13:28:07;87.72;;;27.05;;
28523;SDS011;15734;50.904;6.922;2022-07-23T13:30:33;7.03;;;3.80;;
28523;SDS011;15734;50.904;6.922;2022-07-23T13:33:00;4.43;;;3.70;;
28523;SDS011;15734;50.904;6.922;2022-07-23T13:35:27;9.10;;;4.63;;
28523;SDS011;15734;50.904;6.922;2022-07-23T13:37:53;6.80;;;4.22;;
28523;SDS011;15734;50.904;6.922;2022-07-23T13:40:19;7.10;;;3.90;;
28523;SDS011;15734;50.904;6.922;2022-07-23T13:42:44;6.05;;;4.15;;
28523;SDS011;15734;50.904;6.922;2022-07-23T13:45:10;6.20;;;3.90;;
28523;SDS011;15734;50.904;6.922;2022-07-23T13:47:35;7.45;;;4.13;;
28523;SDS011;15734;50.904;6.922;2022-07-23T13:50:01;8.30;;;4.50;;
28523;SDS011;15734;50.904;6.922;2022-07-23T13:52:27;11.93;;;6.28;;
28523;SDS011;15734;50.904;6.922;2022-07-23T13:54:53;7.78;;;4.75;;
28523;SDS011;15734;50.904;6.922;2022-07-23T13:57:18;5.35;;;3.60;;
28523;SDS011;15734;50.904;6.922;2022-07-23T13:59:44;11.75;;;4.78;;
28523;SDS011;15734;50.904;6.922;2022-07-23T14:02:09;5.30;;;3.88;;
28523;SDS011;15734;50.904;6.922;2022-07-23T14:04:38;5.05;;;3.55;;
28523;SDS011;15734;50.904;6.922;2022-07-23T14:07:04;7.50;;;4.80;;
28523;SDS011;15734;50.904;6.922;2022-07-23T14:09:29;5.95;;;4.15;;
28523;SDS011;15734;50.904;6.922;2022-07-23T14:11:58;5.53;;;3.95;;
28523;SDS011;15734;50.904;6.922;2022-07-23T14:14:24;5.40;;;4.25;;
28523;SDS011;15734;50.904;6.922;2022-07-23T14:16:49;5.53;;;3.72;;
28523;SDS011;15734;50.904;6.922;2022-07-23T14:19:15;7.20;;;3.97;;
28523;SDS011;15734;50.904;6.922;2022-07-23T14:21:40;5.18;;;3.90;;
28523;SDS011;15734;50.904;6.922;2022-07-23T14:24:06;5.93;;;4.43;;
28523;SDS011;15734;50.904;6.922;2022-07-23T14:26:32;5.03;;;3.72;;
28523;SDS011;15734;50.904;6.922;2022-07-23T14:28:57;4.55;;;3.80;;
28523;SDS011;15734;50.904;6.922;2022-07-23T14:31:23;10.55;;;3.92;;
28523;SDS011;15734;50.904;6.922;2022-07-23T14:33:48;4.60;;;3.50;;
28523;SDS011;15734;50.904;6.922;2022-07-23T14:36:14;5.85;;;3.35;;
28523;SDS011;15734;50.904;6.922;2022-07-23T14:38:40;7.85;;;3.30;;
28523;SDS011;15734;50.904;6.922;2022-07-23T14:41:06;12.45;;;3.20;;
28523;SDS011;15734;50.904;6.922;2022-07-23T14:43:33;4.75;;;3.95;;
28523;SDS011;15734;50.904;6.922;2022-07-23T14:45:58;4.18;;;3.38;;
28523;SDS011;15734;50.904;6.922;2022-07-23T14:48:25;4.72;;;3.47;;
28523;SDS011;15734;50.904;6.922;2022-07-23T14:50:50;7.00;;;3.80;;
28523;SDS011;15734;50.904;6.922;2022-07-23T14:53:16;7.03;;;3.67;;
28523;SDS011;15734;50.904;6.922;2022-07-23T14:55:41;4.40;;;2.90;;
28523;SDS011;15734;50.904;6.922;2022-07-23T14:58:07;4.15;;;3.28;;
28523;SDS011;15734;50.904;6.922;2022-07-23T15:00:32;7.20;;;3.63;;
28523;SDS011;15734;50.904;6.922;2022-07-23T15:02:58;5.68;;;3.90;;
28523;SDS011;15734;50.904;6.922;2022-07-23T15:05:24;7.63;;;3.20;;
28523;SDS011;15734;50.904;6.922;2022-07-23T15:07:49;3.85;;;3.38;;
28523;SDS011;15734;50.904;6.922;2022-07-23T15:10:15;6.78;;;4.38;;
28523;SDS011;15734;50.904;6.922;2022-07-23T15:12:40;3.50;;;2.78;;
28523;SDS011;15734;50.904;6.922;2022-07-23T15:15:07;6.47;;;3.10;;
28523;SDS011;15734;50.904;6.922;2022-07-23T15:17:33;5.30;;;3.25;;
28523;SDS011;15734;50.904;6.922;2022-07-23T15:19:58;5.55;;;3.67;;
28523;SDS011;15734;50.904;6.922;2022-07-23T15:22:24;4.07;;;3.25;;